createdAt,value
2018-08-30T00:00:26.167Z,62.30
2018-08-30T00:02:54.672Z,62.50
2018-08-30T00:05:25.402Z,61.90
2018-08-30T00:07:53.574Z,62.70
2018-08-30T00:10:25.054Z,63.00
2018-08-30T00:12:54.250Z,63.20
2018-08-30T00:15:22.376Z,63.40
2018-08-30T00:17:50.643Z,63.50
2018-08-30T00:20:18.812Z,63.50
2018-08-30T00:22:46.963Z,63.70
2018-08-30T00:25:15.070Z,63.90
2018-08-30T00:27:43.202Z,64.00
2018-08-30T00:30:11.336Z,64.20
2018-08-30T00:32:39.491Z,64.20
2018-08-30T00:35:07.626Z,64.40
2018-08-30T00:37:35.802Z,64.50
2018-08-30T00:40:04.890Z,65.30
2018-08-30T00:42:34.152Z,64.70
2018-08-30T00:45:02.487Z,64.60
2018-08-30T00:47:30.797Z,64.90
2018-08-30T00:49:58.990Z,64.90
2018-08-30T00:52:27.279Z,65.10
2018-08-30T00:54:55.410Z,65.10
2018-08-30T00:57:23.558Z,65.20
2018-08-30T00:59:51.700Z,64.80
2018-08-30T01:02:19.857Z,64.90
2018-08-30T01:04:48.146Z,65.00
2018-08-30T01:07:16.799Z,64.90
2018-08-30T01:09:45.011Z,65.00
2018-08-30T01:12:14.142Z,65.60
2018-08-30T01:14:43.052Z,65.70
2018-08-30T01:17:11.196Z,65.80
2018-08-30T01:19:39.370Z,65.80
2018-08-30T01:22:07.470Z,65.90
2018-08-30T01:24:35.620Z,66.00
2018-08-30T01:27:03.710Z,65.90
2018-08-30T01:29:31.938Z,65.90
2018-08-30T01:32:00.139Z,65.90
2018-08-30T01:34:28.513Z,66.00
2018-08-30T01:36:56.675Z,65.90
2018-08-30T01:39:25.710Z,65.60
2018-08-30T01:41:53.868Z,66.50
2018-08-30T01:44:22.059Z,66.60
2018-08-30T01:46:50.248Z,66.90
2018-08-30T01:49:19.942Z,67.30
2018-08-30T01:51:48.134Z,67.50
2018-08-30T01:54:16.276Z,67.90
2018-08-30T01:56:44.602Z,67.90
2018-08-30T01:59:12.753Z,68.00
2018-08-30T02:01:40.896Z,68.20
2018-08-30T02:04:09.296Z,68.60
2018-08-30T02:06:37.544Z,68.30
2018-08-30T02:09:05.830Z,68.20
2018-08-30T02:11:34.030Z,68.20
2018-08-30T02:14:02.268Z,68.40
2018-08-30T02:16:30.662Z,68.60
2018-08-30T02:18:58.892Z,68.90
2018-08-30T02:21:28.026Z,69.00
2018-08-30T02:23:56.249Z,69.20
2018-08-30T02:26:25.302Z,69.50
2018-08-30T02:28:53.444Z,69.90
2018-08-30T02:31:21.576Z,70.00
2018-08-30T02:33:50.226Z,71.10
2018-08-30T02:36:18.430Z,70.50
2018-08-30T02:38:46.716Z,71.50
2018-08-30T02:41:15.054Z,71.20
2018-08-30T02:43:43.186Z,71.50
2018-08-30T02:46:14.072Z,72.00
2018-08-30T02:48:43.436Z,71.50
2018-08-30T02:51:11.616Z,71.80
2018-08-30T02:53:39.744Z,71.80
2018-08-30T02:56:07.936Z,72.00
2018-08-30T02:58:37.452Z,72.40
2018-08-30T03:01:05.752Z,72.60
2018-08-30T03:03:33.858Z,72.70
2018-08-30T03:06:02.054Z,73.00
2018-08-30T03:08:30.240Z,73.20
2018-08-30T03:10:58.382Z,73.60
2018-08-30T03:13:26.554Z,74.50
2018-08-30T03:15:56.220Z,74.00
2018-08-30T03:18:24.537Z,74.10
2018-08-30T03:20:52.754Z,74.20
2018-08-30T03:23:21.130Z,74.20
2018-08-30T03:25:49.308Z,74.20
2018-08-30T03:28:18.998Z,74.50
2018-08-30T03:30:48.357Z,74.60
2018-08-30T03:33:16.445Z,74.80
2018-08-30T03:35:44.665Z,75.00
2018-08-30T03:38:12.840Z,75.10
2018-08-30T03:40:41.796Z,75.30
2018-08-30T03:43:10.108Z,75.30
2018-08-30T03:45:38.780Z,75.20
2018-08-30T03:48:07.588Z,75.20
2018-08-30T03:50:35.946Z,75.40
2018-08-30T03:53:04.300Z,75.10
2018-08-30T03:55:32.440Z,75.20
2018-08-30T03:58:00.623Z,75.10
2018-08-30T04:00:28.818Z,75.30
2018-08-30T04:02:57.312Z,75.40
2018-08-30T04:05:26.311Z,75.80
2018-08-30T04:07:54.444Z,75.90
2018-08-30T04:10:22.685Z,76.00
2018-08-30T04:12:51.325Z,75.90
2018-08-30T04:15:19.528Z,75.90
2018-08-30T04:17:47.766Z,75.70
2018-08-30T04:20:15.975Z,75.70
2018-08-30T04:22:44.111Z,75.50
2018-08-30T04:25:13.383Z,75.50
2018-08-30T04:27:43.209Z,75.50
2018-08-30T04:30:11.336Z,75.50
2018-08-30T04:32:39.795Z,75.60
2018-08-30T04:35:09.103Z,75.80
2018-08-30T04:37:37.596Z,75.80
2018-08-30T04:40:05.813Z,75.70
2018-08-30T04:42:34.029Z,75.30
2018-08-30T04:45:02.202Z,75.30
2018-08-30T04:47:30.372Z,75.00
2018-08-30T04:49:59.438Z,74.70
2018-08-30T04:52:27.593Z,74.50
2018-08-30T04:54:55.833Z,74.50
2018-08-30T04:57:23.992Z,74.20
2018-08-30T04:59:53.463Z,74.20
2018-08-30T05:02:22.961Z,74.30
2018-08-30T05:04:51.203Z,74.30
2018-08-30T05:07:19.411Z,74.90
2018-08-30T05:09:47.720Z,74.60
2018-08-30T05:12:15.918Z,74.50
2018-08-30T05:14:44.078Z,74.30
2018-08-30T05:17:12.450Z,74.20
2018-08-30T05:19:40.658Z,74.10
2018-08-30T05:22:08.903Z,74.40
2018-08-30T05:24:38.663Z,74.40
2018-08-30T05:27:07.100Z,75.20
2018-08-30T05:29:36.423Z,76.20
2018-08-30T05:32:05.724Z,77.40
2018-08-30T05:34:33.844Z,77.80
2018-08-30T05:37:02.072Z,76.70
2018-08-30T05:39:31.404Z,77.40
2018-08-30T05:42:00.430Z,78.20
2018-08-30T05:44:29.080Z,78.10
2018-08-30T05:46:57.220Z,76.40
2018-08-30T05:49:25.344Z,77.10
2018-08-30T05:51:53.520Z,77.40
2018-08-30T05:54:22.250Z,77.70
2018-08-30T05:56:50.453Z,77.40
2018-08-30T05:59:18.574Z,77.00
2018-08-30T06:01:46.781Z,76.40
2018-08-30T06:04:14.891Z,76.70
2018-08-30T06:06:44.200Z,76.60
2018-08-30T06:09:12.378Z,76.50
2018-08-30T06:11:40.594Z,76.30
2018-08-30T06:14:08.870Z,76.60
2018-08-30T06:16:37.022Z,75.70
2018-08-30T06:19:05.238Z,75.60
2018-08-30T06:21:33.387Z,75.10
2018-08-30T06:24:01.565Z,74.60
2018-08-30T06:26:29.734Z,74.40
2018-08-30T06:28:59.426Z,74.00
2018-08-30T06:31:27.832Z,73.80
2018-08-30T06:33:56.617Z,73.70
2018-08-30T06:36:24.762Z,73.60
2018-08-30T06:38:52.933Z,73.60
2018-08-30T06:41:21.102Z,74.00
2018-08-30T06:43:49.349Z,74.50
2018-08-30T06:46:17.489Z,75.10
2018-08-30T06:48:45.644Z,75.50
2018-08-30T06:51:13.866Z,75.90
2018-08-30T06:53:42.054Z,76.10
2018-08-30T06:56:10.276Z,76.20
2018-08-30T06:58:38.432Z,76.40
2018-08-30T07:01:06.672Z,76.80
2018-08-30T07:03:34.828Z,76.90
2018-08-30T07:06:04.418Z,77.20
2018-08-30T07:08:32.567Z,77.60
2018-08-30T07:11:00.670Z,78.00
2018-08-30T07:13:29.524Z,78.40
2018-08-30T07:15:57.661Z,78.90
2018-08-30T07:18:25.984Z,79.40
2018-08-30T07:20:54.348Z,80.10
2018-08-30T07:23:22.478Z,81.20
2018-08-30T07:25:50.611Z,82.00
2018-08-30T07:28:18.905Z,83.50
2018-08-30T07:30:47.046Z,84.50
2018-08-30T07:33:15.324Z,85.50
2018-08-30T07:35:43.634Z,86.30
2018-08-30T07:38:11.796Z,87.20
2018-08-30T07:40:40.776Z,87.10
2018-08-30T07:43:08.913Z,87.60
2018-08-30T07:45:37.293Z,87.50
2018-08-30T07:48:05.488Z,87.90
2018-08-30T07:50:33.616Z,87.90
2018-08-30T07:53:01.781Z,88.70
2018-08-30T07:55:29.947Z,89.20
2018-08-30T07:57:58.150Z,89.50
2018-08-30T08:00:26.498Z,89.70
2018-08-30T08:02:55.281Z,89.50
2018-08-30T08:05:23.642Z,89.30
2018-08-30T08:07:51.779Z,89.70
2018-08-30T08:10:20.022Z,90.00
2018-08-30T08:12:48.284Z,90.40
2018-08-30T08:15:16.516Z,90.60
2018-08-30T08:17:44.926Z,90.60
2018-08-30T08:20:13.057Z,91.10
2018-08-30T08:22:41.254Z,91.70
2018-08-30T08:25:10.587Z,91.90
2018-08-30T08:27:39.335Z,92.10
2018-08-30T08:30:07.972Z,92.60
2018-08-30T08:32:36.105Z,93.10
2018-08-30T08:35:04.445Z,93.30
2018-08-30T08:37:32.576Z,93.50
2018-08-30T08:40:00.713Z,93.70
2018-08-30T08:42:28.885Z,94.00
2018-08-30T08:44:57.225Z,94.10
2018-08-30T08:47:25.567Z,94.30
2018-08-30T08:49:53.708Z,94.40
2018-08-30T08:52:21.969Z,94.90
2018-08-30T08:54:50.231Z,94.90
2018-08-30T08:57:18.505Z,94.70
2018-08-30T08:59:46.684Z,94.80
2018-08-30T09:02:14.971Z,94.80
2018-08-30T09:04:43.167Z,94.70
2018-08-30T09:07:11.375Z,94.80
2018-08-30T09:09:39.488Z,94.60
2018-08-30T09:12:08.200Z,94.80
2018-08-30T09:14:36.358Z,94.70
2018-08-30T09:17:05.100Z,94.50
2018-08-30T09:19:33.261Z,94.40
2018-08-30T09:22:01.409Z,94.40
2018-08-30T09:24:29.559Z,94.00
2018-08-30T09:26:57.775Z,93.60
2018-08-30T09:29:25.900Z,93.60
2018-08-30T09:31:54.172Z,93.80
2018-08-30T09:34:22.333Z,94.00
2018-08-30T09:36:50.459Z,94.10
2018-08-30T09:39:18.865Z,94.50
2018-08-30T09:41:47.015Z,94.60
2018-08-30T09:44:15.299Z,94.90
2018-08-30T09:46:43.647Z,94.60
2018-08-30T09:49:11.773Z,94.70
2018-08-30T09:51:40.090Z,94.50
2018-08-30T09:54:08.211Z,94.30
2018-08-30T09:56:36.580Z,94.50
2018-08-30T09:59:04.908Z,94.70
2018-08-30T10:01:39.366Z,94.60
2018-08-30T10:04:08.066Z,94.50
2018-08-30T10:06:36.455Z,94.90
2018-08-30T10:09:08.021Z,94.90
2018-08-30T10:11:36.869Z,95.10
2018-08-30T10:14:05.226Z,95.30
2018-08-30T10:16:34.923Z,95.50
2018-08-30T10:19:03.171Z,95.40
2018-08-30T10:21:31.376Z,95.60
2018-08-30T10:23:59.462Z,95.60
2018-08-30T10:26:27.589Z,95.60
2018-08-30T10:28:55.785Z,95.80
2018-08-30T10:31:23.987Z,95.80
2018-08-30T10:33:52.293Z,95.90
2018-08-30T10:36:22.071Z,96.00
2018-08-30T10:38:50.217Z,96.10
2018-08-30T10:41:18.634Z,96.30
2018-08-30T10:43:46.799Z,96.30
2018-08-30T10:46:15.032Z,96.60
2018-08-30T10:48:43.281Z,96.70
2018-08-30T10:51:11.704Z,96.50
2018-08-30T10:53:39.897Z,96.60
2018-08-30T10:56:08.124Z,96.50
2018-08-30T10:58:36.350Z,96.30
2018-08-30T11:01:04.639Z,96.30
2018-08-30T11:03:32.846Z,97.00
2018-08-30T11:06:01.047Z,96.50
2018-08-30T11:08:29.400Z,96.50
2018-08-30T11:10:57.558Z,96.20
2018-08-30T11:13:25.924Z,95.80
2018-08-30T11:15:54.909Z,95.20
2018-08-30T11:18:23.067Z,94.80
2018-08-30T11:20:51.341Z,94.90
2018-08-30T11:23:19.535Z,95.20
2018-08-30T11:25:47.751Z,95.30
2018-08-30T11:28:16.093Z,95.70
2018-08-30T11:30:44.291Z,96.00
2018-08-30T11:33:12.637Z,96.30
2018-08-30T11:35:40.913Z,96.50
2018-08-30T11:38:09.126Z,96.70
2018-08-30T11:40:37.421Z,96.90
2018-08-30T11:43:05.732Z,97.20
2018-08-30T11:45:34.013Z,97.20
2018-08-30T11:48:02.203Z,97.10
2018-08-30T11:50:30.457Z,96.80
2018-08-30T11:52:58.701Z,96.50
2018-08-30T11:55:26.952Z,96.50
2018-08-30T11:57:55.183Z,96.60
2018-08-30T12:00:24.924Z,96.40
2018-08-30T12:02:53.109Z,96.10
2018-08-30T12:05:21.296Z,95.70
2018-08-30T12:07:50.632Z,95.20
2018-08-30T12:10:20.652Z,94.80
2018-08-30T12:12:48.715Z,94.30
2018-08-30T12:15:16.838Z,94.20
2018-08-30T12:17:45.078Z,94.10
2018-08-30T12:20:13.663Z,93.90
2018-08-30T12:22:41.923Z,93.70
2018-08-30T12:25:10.212Z,93.40
2018-08-30T12:27:38.592Z,93.10
2018-08-30T12:30:06.812Z,92.90
2018-08-30T12:32:35.083Z,92.80
2018-08-30T12:35:03.227Z,92.70
2018-08-30T12:37:31.361Z,92.70
2018-08-30T12:39:59.851Z,92.70
2018-08-30T12:42:28.037Z,92.80
2018-08-30T12:44:56.156Z,92.60
2018-08-30T12:47:24.387Z,92.60
2018-08-30T12:49:52.753Z,92.60
2018-08-30T12:52:20.983Z,93.00
2018-08-30T12:54:49.155Z,93.30
2018-08-30T12:57:17.239Z,93.50
2018-08-30T12:59:45.420Z,93.60
2018-08-30T13:02:13.770Z,93.60
2018-08-30T13:04:42.758Z,93.80
2018-08-30T13:07:11.418Z,93.60
2018-08-30T13:09:39.554Z,93.50
2018-08-30T13:12:08.197Z,93.50
2018-08-30T13:14:36.103Z,93.50
2018-08-30T13:17:04.138Z,93.50
2018-08-30T13:19:32.649Z,93.70
2018-08-30T13:22:00.918Z,93.50
2018-08-30T13:24:29.035Z,93.30
2018-08-30T13:26:58.822Z,93.10
2018-08-30T13:29:27.095Z,93.00
2018-08-30T13:31:55.395Z,92.90
2018-08-30T13:34:28.241Z,92.90
2018-08-30T13:36:56.559Z,92.90
2018-08-30T13:39:24.909Z,93.10
2018-08-30T13:41:54.047Z,93.20
2018-08-30T13:44:22.265Z,93.00
2018-08-30T13:46:50.842Z,92.80
2018-08-30T13:49:18.875Z,92.80
2018-08-30T13:51:47.281Z,93.00
2018-08-30T13:54:15.452Z,93.20
2018-08-30T13:56:43.543Z,93.10
2018-08-30T13:59:12.096Z,93.00
2018-08-30T14:01:40.319Z,92.90
2018-08-30T14:04:09.329Z,92.80
2018-08-30T14:06:37.377Z,92.90
2018-08-30T14:09:07.484Z,93.00
2018-08-30T14:11:35.983Z,92.70
2018-08-30T14:14:04.053Z,92.80
2018-08-30T14:16:33.963Z,92.90
2018-08-30T14:19:02.367Z,93.10
2018-08-30T14:21:30.351Z,93.20
2018-08-30T14:23:58.541Z,93.20
2018-08-30T14:26:26.873Z,93.60
2018-08-30T14:28:55.026Z,94.00
2018-08-30T14:31:24.477Z,94.20
2018-08-30T14:33:53.352Z,94.30
2018-08-30T14:36:21.533Z,94.30
2018-08-30T14:38:49.760Z,94.00
2018-08-30T14:41:18.135Z,94.10
2018-08-30T14:43:46.222Z,93.90
2018-08-30T14:46:14.325Z,93.60
2018-08-30T14:48:42.545Z,93.20
2018-08-30T14:51:10.748Z,93.10
2018-08-30T14:53:39.087Z,92.90
2018-08-30T14:56:07.228Z,92.70
2018-08-30T14:58:35.384Z,92.60
2018-08-30T15:01:03.545Z,92.50
2018-08-30T15:03:38.418Z,92.50
2018-08-30T15:06:06.581Z,92.40
2018-08-30T15:08:34.729Z,92.30
2018-08-30T15:11:02.875Z,92.10
2018-08-30T15:13:31.167Z,92.10
2018-08-30T15:15:59.468Z,92.10
2018-08-30T15:18:27.597Z,92.20
2018-08-30T15:20:55.964Z,92.10
2018-08-30T15:23:24.142Z,92.20
2018-08-30T15:25:52.347Z,92.60
2018-08-30T15:28:20.846Z,92.30
2018-08-30T15:30:49.011Z,92.30
2018-08-30T15:33:17.259Z,92.40
2018-08-30T15:35:45.764Z,92.20
2018-08-30T15:38:14.021Z,92.20
2018-08-30T15:40:42.355Z,92.20
2018-08-30T15:43:10.558Z,92.20
2018-08-30T15:45:40.269Z,92.20
2018-08-30T15:48:08.528Z,92.30
2018-08-30T15:50:40.369Z,91.90
2018-08-30T15:53:11.755Z,92.00
2018-08-30T15:55:41.157Z,92.30
2018-08-30T15:58:09.291Z,93.10
2018-08-30T16:00:38.077Z,94.00
2018-08-30T16:03:06.455Z,95.30
2018-08-30T16:05:34.602Z,95.80
2018-08-30T16:08:02.794Z,96.20
2018-08-30T16:10:31.091Z,96.40
2018-08-30T16:13:00.683Z,96.70
2018-08-30T16:15:29.049Z,96.90
2018-08-30T16:17:57.209Z,97.10
2018-08-30T16:20:32.287Z,97.40
2018-08-30T16:23:07.415Z,97.50
2018-08-30T16:25:35.797Z,97.50
2018-08-30T16:28:04.298Z,97.60
2018-08-30T16:30:32.643Z,97.60
2018-08-30T16:33:00.658Z,97.50
2018-08-30T16:35:28.861Z,97.50
2018-08-30T16:37:57.734Z,97.40
2018-08-30T16:40:26.027Z,97.10
2018-08-30T16:42:54.213Z,96.90
2018-08-30T16:45:22.410Z,96.70
2018-08-30T16:47:50.617Z,96.70
2018-08-30T16:50:18.811Z,96.60
2018-08-30T16:52:47.046Z,96.60
2018-08-30T16:55:15.218Z,96.60
2018-08-30T16:57:44.241Z,96.60
2018-08-30T17:00:13.203Z,96.70
2018-08-30T17:02:41.400Z,96.70
2018-08-30T17:05:09.815Z,96.80
2018-08-30T17:07:39.008Z,96.80
2018-08-30T17:10:07.322Z,97.00
2018-08-30T17:12:36.321Z,97.00
2018-08-30T17:15:04.935Z,97.10
2018-08-30T17:17:34.467Z,97.00
2018-08-30T17:20:02.753Z,97.30
2018-08-30T17:22:31.029Z,97.10
2018-08-30T17:24:59.306Z,97.30
2018-08-30T17:27:27.573Z,97.40
2018-08-30T17:29:55.744Z,97.40
2018-08-30T17:32:24.057Z,97.50
2018-08-30T17:34:52.948Z,97.90
2018-08-30T17:37:21.338Z,98.20
2018-08-30T17:39:50.767Z,98.60
2018-08-30T17:42:19.926Z,98.90
2018-08-30T17:44:48.276Z,99.00
2018-08-30T17:47:16.489Z,99.40
2018-08-30T17:49:44.748Z,99.30
2018-08-30T17:52:13.016Z,99.70
2018-08-30T17:54:41.300Z,99.90
2018-08-30T17:57:09.519Z,99.90
2018-08-30T17:59:38.230Z,99.90
2018-08-30T18:02:06.994Z,99.90
2018-08-30T18:04:35.226Z,99.90
2018-08-30T18:07:03.454Z,99.90
2018-08-30T18:09:31.697Z,99.90
2018-08-30T18:11:59.875Z,99.90
2018-08-30T18:14:28.923Z,99.90
2018-08-30T18:16:57.337Z,99.90
2018-08-30T18:19:25.513Z,99.90
2018-08-30T18:21:53.775Z,99.90
2018-08-30T18:24:24.405Z,99.90
2018-08-30T18:26:52.726Z,99.90
2018-08-30T18:29:21.166Z,99.90
2018-08-30T18:31:50.467Z,99.90
2018-08-30T18:34:18.879Z,99.90
2018-08-30T18:36:47.145Z,99.90
2018-08-30T18:39:16.490Z,99.90
2018-08-30T18:41:45.287Z,99.90
2018-08-30T18:44:14.858Z,99.90
2018-08-30T18:46:44.199Z,99.90
2018-08-30T18:49:12.639Z,99.90
2018-08-30T18:51:41.241Z,99.90
2018-08-30T18:54:11.292Z,99.90
2018-08-30T18:56:39.558Z,99.90
2018-08-30T18:59:07.856Z,99.90
2018-08-30T19:01:37.540Z,99.90
2018-08-30T19:04:06.727Z,99.90
2018-08-30T19:06:35.377Z,99.90
2018-08-30T19:09:04.649Z,99.90
2018-08-30T19:11:33.201Z,99.90
2018-08-30T19:14:01.339Z,99.90
2018-08-30T19:16:36.222Z,99.90
2018-08-30T19:19:10.761Z,99.90
2018-08-30T19:21:39.167Z,99.90
2018-08-30T19:24:11.146Z,99.90
2018-08-30T19:26:40.859Z,99.90
2018-08-30T19:29:09.837Z,99.90
2018-08-30T19:31:38.095Z,99.90
2018-08-30T19:34:06.650Z,99.90
2018-08-30T19:36:37.790Z,99.90
2018-08-30T19:39:08.853Z,99.90
2018-08-30T19:41:37.135Z,99.90
2018-08-30T19:44:05.553Z,99.90
2018-08-30T19:46:33.735Z,99.90
2018-08-30T19:49:02.682Z,99.90
2018-08-30T19:51:30.856Z,99.90
2018-08-30T19:53:59.149Z,99.90
2018-08-30T19:56:27.283Z,99.90
2018-08-30T19:58:55.521Z,99.90
2018-08-30T20:01:24.024Z,99.90
2018-08-30T20:03:52.491Z,99.70
2018-08-30T20:06:20.851Z,99.50
2018-08-30T20:08:49.493Z,99.50
2018-08-30T20:11:17.666Z,99.40
2018-08-30T20:13:45.953Z,99.00
2018-08-30T20:16:14.157Z,99.10
2018-08-30T20:18:42.727Z,99.10
2018-08-30T20:21:11.049Z,98.80
2018-08-30T20:23:39.287Z,98.80
2018-08-30T20:26:08.735Z,98.70
2018-08-30T20:28:37.271Z,98.50
2018-08-30T20:31:05.554Z,98.50
2018-08-30T20:33:33.859Z,98.50
2018-08-30T20:36:02.179Z,98.30
2018-08-30T20:38:31.048Z,98.00
2018-08-30T20:40:59.229Z,98.10
2018-08-30T20:43:27.507Z,98.00
2018-08-30T20:45:55.674Z,97.70
2018-08-30T20:48:24.507Z,97.60
2018-08-30T20:50:52.727Z,97.70
2018-08-30T20:53:20.940Z,97.60
2018-08-30T20:55:49.056Z,97.50
2018-08-30T20:58:17.286Z,97.60
2018-08-30T21:00:45.486Z,97.50
2018-08-30T21:03:13.729Z,97.50
2018-08-30T21:05:42.043Z,97.40
2018-08-30T21:08:10.931Z,97.40
2018-08-30T21:10:39.055Z,97.30
2018-08-30T21:13:09.329Z,97.20
2018-08-30T21:15:37.434Z,97.20
2018-08-30T21:18:06.516Z,97.20
2018-08-30T21:20:35.629Z,97.20
2018-08-30T21:23:03.824Z,97.20
2018-08-30T21:25:31.959Z,97.20
2018-08-30T21:28:01.599Z,97.20
2018-08-30T21:30:29.740Z,97.30
2018-08-30T21:32:57.872Z,97.50
2018-08-30T21:35:26.003Z,97.50
2018-08-30T21:37:54.189Z,97.50
2018-08-30T21:40:22.393Z,97.50
2018-08-30T21:42:50.525Z,97.50
2018-08-30T21:45:18.902Z,97.60
2018-08-30T21:47:47.806Z,97.60
2018-08-30T21:50:15.961Z,97.60
2018-08-30T21:52:44.078Z,97.40
2018-08-30T21:55:12.701Z,97.40
2018-08-30T21:57:42.049Z,97.60
2018-08-30T22:00:10.273Z,97.40
2018-08-30T22:02:38.426Z,97.30
2018-08-30T22:05:06.550Z,97.20
2018-08-30T22:07:34.977Z,97.20
2018-08-30T22:10:03.275Z,97.20
2018-08-30T22:12:31.492Z,97.20
2018-08-30T22:14:59.694Z,97.10
2018-08-30T22:17:27.853Z,97.20
2018-08-30T22:19:56.385Z,96.90
2018-08-30T22:22:24.532Z,96.90
2018-08-30T22:24:52.704Z,96.90
2018-08-30T22:27:20.900Z,96.80
2018-08-30T22:29:49.179Z,96.70
2018-08-30T22:32:17.352Z,96.70
2018-08-30T22:34:45.571Z,96.80
2018-08-30T22:37:13.679Z,96.60
2018-08-30T22:39:42.418Z,96.50
2018-08-30T22:42:10.607Z,96.40
2018-08-30T22:44:38.736Z,96.30
2018-08-30T22:47:06.880Z,96.20
2018-08-30T22:49:35.119Z,95.90
2018-08-30T22:52:04.838Z,95.70
2018-08-30T22:54:34.234Z,95.90
2018-08-30T22:57:02.376Z,95.80
2018-08-30T22:59:30.573Z,95.70
2018-08-30T23:01:58.750Z,95.70
2018-08-30T23:04:26.957Z,95.40
2018-08-30T23:06:56.670Z,95.50
2018-08-30T23:09:25.449Z,95.50
2018-08-30T23:11:53.654Z,95.30
2018-08-30T23:14:21.808Z,95.40
2018-08-30T23:16:49.918Z,95.50
2018-08-30T23:19:18.167Z,95.50
2018-08-30T23:21:46.343Z,95.50
2018-08-30T23:24:15.486Z,95.50
2018-08-30T23:26:43.846Z,95.20
2018-08-30T23:29:11.940Z,95.30
2018-08-30T23:31:40.286Z,95.30
2018-08-30T23:34:08.478Z,95.30
2018-08-30T23:36:36.738Z,95.30
2018-08-30T23:39:07.725Z,95.40
2018-08-30T23:41:36.042Z,95.30
2018-08-30T23:44:04.196Z,95.20
2018-08-30T23:46:32.305Z,95.10
2018-08-30T23:49:00.394Z,95.00
2018-08-30T23:51:29.027Z,95.00
2018-08-30T23:53:57.219Z,95.10
2018-08-30T23:56:25.501Z,95.20
2018-08-30T23:59:05.088Z,95.10
